Terminal Aerodrome Forecast
Issued by NWS La Crosse, WI

Home | Current Version | Previous Version | Text Only | Print | Product List | Glossary On
Versions: 1 2 3 4 5 6 7 8 9 10 11 12 13 14 15 16 17 18 19 20 21 22 23 24 25
000
FTUS43 KARX 301923 AAA
TAFRST
TAF AMD
KRST 301923Z 3019/0118 06018G25KT P6SM OVC017
     FM010000 06018G27KT 3SM SHRA OVC008
     FM010600 06011KT 4SM -SHRA OVC003
     FM010700 06010KT P6SM OVC003
     FM011000 07008KT 4SM -SHRA OVC003
     FM011500 27006KT 2SM -SHRA OVC008=

USA.gov is the U.S. government's official web portal to all federal, state and local government web resources and services.